createdAt,value
2023-05-06T00:01:25.348Z,100.00
2023-05-06T00:03:52.363Z,100.00
2023-05-06T00:06:19.207Z,100.00
2023-05-06T00:08:46.661Z,100.00
2023-05-06T00:11:13.935Z,100.00
2023-05-06T00:13:41.629Z,100.00
2023-05-06T00:16:08.437Z,100.00
2023-05-06T00:18:35.241Z,100.00
2023-05-06T00:21:01.641Z,100.00
2023-05-06T00:23:28.225Z,100.00
2023-05-06T00:25:54.908Z,100.00
2023-05-06T00:28:22.022Z,100.00
2023-05-06T00:30:48.465Z,100.00
2023-05-06T00:33:14.982Z,100.00
2023-05-06T00:35:41.383Z,100.00
2023-05-06T00:38:14.299Z,100.00
2023-05-06T00:40:41.026Z,100.00
2023-05-06T00:43:07.535Z,100.00
2023-05-06T00:45:34.103Z,100.00
2023-05-06T00:48:01.167Z,100.00
2023-05-06T00:50:29.625Z,100.00
2023-05-06T00:52:58.992Z,100.00
2023-05-06T00:55:26.435Z,100.00
2023-05-06T00:57:53.107Z,100.00
2023-05-06T01:00:20.484Z,100.00
2023-05-06T01:02:48.228Z,100.00
2023-05-06T01:05:22.242Z,100.00
2023-05-06T01:08:12.925Z,100.00
2023-05-06T01:10:51.687Z,100.00
2023-05-06T01:13:47.092Z,100.00
2023-05-06T01:16:15.818Z,100.00
2023-05-06T01:18:44.546Z,100.00
2023-05-06T01:21:12.632Z,100.00
2023-05-06T01:23:57.645Z,100.00
2023-05-06T01:26:24.898Z,100.00
2023-05-06T01:28:51.498Z,100.00
2023-05-06T01:31:30.065Z,100.00
2023-05-06T01:34:14.130Z,100.00
2023-05-06T01:36:58.484Z,100.00
2023-05-06T01:39:26.336Z,100.00
2023-05-06T01:41:57.315Z,100.00
2023-05-06T01:44:24.870Z,100.00
2023-05-06T01:46:51.793Z,100.00
2023-05-06T01:49:19.893Z,100.00
2023-05-06T01:51:50.846Z,100.00
2023-05-06T01:54:17.730Z,100.00
2023-05-06T01:56:44.195Z,100.00
2023-05-06T01:59:10.832Z,100.00
2023-05-06T02:01:37.297Z,100.00
2023-05-06T02:04:04.181Z,100.00
2023-05-06T02:06:30.777Z,100.00
2023-05-06T02:08:57.182Z,100.00
2023-05-06T02:11:23.621Z,100.00
2023-05-06T02:13:50.356Z,100.00
2023-05-06T02:16:16.969Z,100.00
2023-05-06T02:18:43.606Z,100.00
2023-05-06T02:21:10.435Z,100.00
2023-05-06T02:23:36.820Z,100.00
2023-05-06T02:26:04.331Z,100.00
2023-05-06T02:28:30.827Z,100.00
2023-05-06T02:30:57.717Z,100.00
2023-05-06T02:33:24.499Z,100.00
2023-05-06T02:35:51.329Z,100.00
2023-05-06T02:38:19.129Z,100.00
2023-05-06T02:40:45.701Z,100.00
2023-05-06T02:43:12.200Z,100.00
2023-05-06T02:45:39.288Z,100.00
2023-05-06T02:48:06.321Z,100.00
2023-05-06T02:50:34.017Z,100.00
2023-05-06T02:53:00.553Z,100.00
2023-05-06T02:55:27.183Z,100.00
2023-05-06T02:57:53.669Z,100.00
2023-05-06T03:00:20.335Z,100.00
2023-05-06T03:02:47.182Z,100.00
2023-05-06T03:05:13.746Z,100.00
2023-05-06T03:07:40.170Z,100.00
2023-05-06T03:10:07.593Z,100.00
2023-05-06T03:12:34.207Z,100.00
2023-05-06T03:15:00.710Z,100.00
2023-05-06T03:17:27.200Z,100.00
2023-05-06T03:19:53.668Z,100.00
2023-05-06T03:22:20.482Z,100.00
2023-05-06T03:24:46.859Z,100.00
2023-05-06T03:27:13.312Z,100.00
2023-05-06T03:29:39.742Z,100.00
2023-05-06T03:32:06.631Z,100.00
2023-05-06T03:34:33.080Z,100.00
2023-05-06T03:37:00.449Z,100.00
2023-05-06T03:39:26.861Z,100.00
2023-05-06T03:41:53.394Z,100.00
2023-05-06T03:44:19.820Z,100.00
2023-05-06T03:46:46.242Z,100.00
2023-05-06T03:49:12.944Z,100.00
2023-05-06T03:51:39.534Z,100.00
2023-05-06T03:54:06.174Z,100.00
2023-05-06T03:56:32.677Z,100.00
2023-05-06T03:58:59.122Z,100.00
2023-05-06T04:01:25.646Z,100.00
2023-05-06T04:03:53.657Z,100.00
2023-05-06T04:06:20.104Z,100.00
2023-05-06T04:08:46.548Z,100.00
2023-05-06T04:11:13.054Z,100.00
2023-05-06T04:13:39.554Z,100.00
2023-05-06T04:16:06.367Z,100.00
2023-05-06T04:18:34.315Z,100.00
2023-05-06T04:21:00.899Z,100.00
2023-05-06T04:23:27.408Z,100.00
2023-05-06T04:25:53.995Z,100.00
2023-05-06T04:28:20.702Z,100.00
2023-05-06T04:30:47.194Z,100.00
2023-05-06T04:33:13.956Z,100.00
2023-05-06T04:35:41.012Z,100.00
2023-05-06T04:38:07.586Z,100.00
2023-05-06T04:40:36.577Z,100.00
2023-05-06T04:43:03.194Z,100.00
2023-05-06T04:45:29.946Z,100.00
2023-05-06T04:47:56.620Z,100.00
2023-05-06T04:50:23.129Z,100.00
2023-05-06T04:52:49.707Z,100.00
2023-05-06T04:55:16.284Z,100.00
2023-05-06T04:57:42.831Z,100.00
2023-05-06T05:00:10.671Z,100.00
2023-05-06T05:02:37.607Z,100.00
2023-05-06T05:05:04.441Z,100.00
2023-05-06T05:07:30.950Z,100.00
2023-05-06T05:09:57.579Z,100.00
2023-05-06T05:12:24.015Z,100.00
2023-05-06T05:14:50.450Z,100.00
2023-05-06T05:17:17.038Z,100.00
2023-05-06T05:19:43.549Z,100.00
2023-05-06T05:22:10.040Z,100.00
2023-05-06T05:24:36.469Z,100.00
2023-05-06T05:27:03.444Z,100.00
2023-05-06T05:29:29.936Z,100.00
2023-05-06T05:31:56.628Z,100.00
2023-05-06T05:34:23.022Z,97.40
2023-05-06T05:36:49.561Z,92.08
2023-05-06T05:39:16.078Z,87.24
2023-05-06T05:41:42.610Z,83.86
2023-05-06T05:44:09.095Z,86.97
2023-05-06T05:46:35.581Z,90.14
2023-05-06T05:49:02.087Z,90.09
2023-05-06T05:51:28.566Z,89.31
2023-05-06T05:53:54.984Z,90.45
2023-05-06T05:56:21.503Z,91.69
2023-05-06T05:58:48.073Z,92.31
2023-05-06T06:01:14.643Z,93.77
2023-05-06T06:03:41.895Z,94.89
2023-05-06T06:06:09.217Z,95.88
2023-05-06T06:08:36.048Z,96.92
2023-05-06T06:11:04.480Z,97.47
2023-05-06T06:13:31.579Z,98.70
2023-05-06T06:15:58.477Z,99.59
2023-05-06T06:18:24.968Z,100.00
2023-05-06T06:20:53.286Z,100.00
2023-05-06T06:23:20.946Z,100.00
2023-05-06T06:25:47.431Z,100.00
2023-05-06T06:28:13.950Z,100.00
2023-05-06T06:30:41.215Z,100.00
2023-05-06T06:33:07.765Z,100.00
2023-05-06T06:35:35.643Z,100.00
2023-05-06T06:38:02.849Z,100.00
2023-05-06T06:40:29.310Z,100.00
2023-05-06T06:42:55.814Z,100.00
2023-05-06T06:45:23.438Z,100.00
2023-05-06T06:47:50.055Z,100.00
2023-05-06T06:50:16.723Z,100.00
2023-05-06T06:52:43.126Z,100.00
2023-05-06T06:55:10.210Z,100.00
2023-05-06T06:57:37.911Z,100.00
2023-05-06T07:00:05.129Z,100.00
2023-05-06T07:02:31.647Z,100.00
2023-05-06T07:04:58.091Z,98.81
2023-05-06T07:07:24.505Z,98.50
2023-05-06T07:09:50.939Z,99.33
2023-05-06T07:12:17.400Z,97.47
2023-05-06T07:14:43.783Z,97.97
2023-05-06T07:17:10.264Z,96.88
2023-05-06T07:19:36.894Z,95.56
2023-05-06T07:22:03.432Z,95.38
2023-05-06T07:24:29.905Z,88.02
2023-05-06T07:26:56.639Z,85.64
2023-05-06T07:29:23.708Z,86.91
2023-05-06T07:31:50.080Z,86.23
2023-05-06T07:34:16.530Z,87.19
2023-05-06T07:36:54.821Z,85.96
2023-05-06T07:39:21.290Z,86.07
2023-05-06T07:41:48.025Z,86.85
2023-05-06T07:44:14.418Z,85.88
2023-05-06T07:46:41.790Z,86.09
2023-05-06T07:49:08.323Z,80.34
2023-05-06T07:51:34.842Z,77.95
2023-05-06T07:54:01.310Z,78.95
2023-05-06T07:56:28.001Z,77.24
2023-05-06T07:58:54.590Z,76.87
2023-05-06T08:01:21.154Z,79.40
2023-05-06T08:03:47.670Z,79.69
2023-05-06T08:06:14.464Z,80.99
2023-05-06T08:08:40.894Z,80.50
2023-05-06T08:11:07.369Z,80.66
2023-05-06T08:13:33.890Z,81.85
2023-05-06T08:16:02.318Z,80.80
2023-05-06T08:18:29.362Z,80.62
2023-05-06T08:20:55.909Z,82.84
2023-05-06T08:23:22.470Z,81.19
2023-05-06T08:25:48.862Z,82.58
2023-05-06T08:28:15.271Z,84.15
2023-05-06T08:30:41.919Z,82.59
2023-05-06T08:33:08.410Z,80.64
2023-05-06T08:35:34.836Z,80.11
2023-05-06T08:38:01.854Z,79.26
2023-05-06T08:40:32.538Z,79.37
2023-05-06T08:42:59.732Z,80.40
2023-05-06T08:45:29.269Z,78.98
2023-05-06T08:47:56.180Z,78.20
2023-05-06T08:50:23.396Z,77.67
2023-05-06T08:52:50.858Z,77.87
2023-05-06T08:55:19.327Z,76.42
2023-05-06T08:57:46.311Z,76.10
2023-05-06T09:00:13.459Z,74.11
2023-05-06T09:02:42.693Z,76.01
2023-05-06T09:05:10.216Z,74.15
2023-05-06T09:07:37.026Z,72.00
2023-05-06T09:10:21.874Z,73.63
2023-05-06T09:12:48.435Z,72.17
2023-05-06T09:15:15.163Z,73.02
2023-05-06T09:17:41.955Z,74.94
2023-05-06T09:20:11.948Z,73.94
2023-05-06T09:22:40.510Z,70.61
2023-05-06T09:25:07.848Z,71.85
2023-05-06T09:27:36.586Z,72.42
2023-05-06T09:30:14.886Z,70.48
2023-05-06T09:32:41.916Z,73.98
2023-05-06T09:35:10.638Z,71.57
2023-05-06T09:37:37.320Z,74.20
2023-05-06T09:40:04.097Z,74.58
2023-05-06T09:42:30.880Z,74.12
2023-05-06T09:45:07.575Z,74.20
2023-05-06T09:47:35.644Z,72.68
2023-05-06T09:50:03.354Z,72.83
2023-05-06T09:52:31.150Z,75.31
2023-05-06T09:54:58.147Z,73.44
2023-05-06T09:57:25.719Z,72.75
2023-05-06T09:59:53.964Z,74.36
2023-05-06T10:02:23.426Z,74.78
2023-05-06T10:04:51.199Z,75.70
2023-05-06T10:07:22.754Z,72.38
2023-05-06T10:09:51.085Z,73.04
2023-05-06T10:12:19.012Z,69.39
2023-05-06T10:14:45.627Z,69.29
2023-05-06T10:17:13.329Z,69.75
2023-05-06T10:19:43.773Z,70.64
2023-05-06T10:22:30.941Z,66.96
2023-05-06T10:25:33.879Z,66.60
2023-05-06T10:28:01.422Z,67.39
2023-05-06T10:30:30.148Z,66.95
2023-05-06T10:32:59.549Z,67.41
2023-05-06T10:35:41.425Z,67.17
2023-05-06T10:38:29.632Z,66.69
2023-05-06T10:40:57.302Z,67.65
2023-05-06T10:43:32.001Z,66.27
2023-05-06T10:46:02.921Z,66.57
2023-05-06T10:48:30.866Z,65.68
2023-05-06T10:51:15.935Z,62.51
2023-05-06T10:54:08.514Z,63.66
2023-05-06T10:56:50.217Z,62.32
2023-05-06T10:59:24.954Z,59.29
2023-05-06T11:01:57.390Z,60.00
2023-05-06T11:04:24.015Z,62.94
2023-05-06T11:06:52.961Z,62.03
2023-05-06T11:09:24.610Z,62.10
2023-05-06T11:12:05.914Z,60.76
2023-05-06T11:14:35.349Z,61.69
2023-05-06T11:17:04.935Z,62.83
2023-05-06T11:19:33.102Z,59.64
2023-05-06T11:22:01.766Z,58.77
2023-05-06T11:24:30.193Z,58.64
2023-05-06T11:26:58.830Z,57.13
2023-05-06T11:29:25.937Z,57.25
2023-05-06T11:31:55.856Z,57.70
2023-05-06T11:34:30.489Z,57.29
2023-05-06T11:37:02.487Z,58.34
2023-05-06T11:39:32.327Z,58.87
2023-05-06T11:42:06.974Z,57.32
2023-05-06T11:44:35.115Z,57.40
2023-05-06T11:47:05.594Z,56.00
2023-05-06T11:49:40.759Z,59.11
2023-05-06T11:52:12.003Z,56.58
2023-05-06T11:54:40.603Z,57.12
2023-05-06T11:57:07.436Z,55.12
2023-05-06T11:59:37.489Z,56.73
2023-05-06T12:02:06.145Z,56.07
2023-05-06T12:04:44.200Z,59.78
2023-05-06T12:07:13.158Z,59.20
2023-05-06T12:09:43.572Z,58.94
2023-05-06T12:12:11.236Z,58.45
2023-05-06T12:14:38.399Z,57.72
2023-05-06T12:17:05.413Z,55.78
2023-05-06T12:19:32.707Z,56.43
2023-05-06T12:22:19.479Z,55.39
2023-05-06T12:24:47.561Z,56.59
2023-05-06T12:27:14.287Z,55.90
2023-05-06T12:29:40.774Z,55.27
2023-05-06T12:32:11.676Z,56.82
2023-05-06T12:34:40.013Z,55.70
2023-05-06T12:37:09.858Z,52.81
2023-05-06T12:39:40.409Z,55.79
2023-05-06T12:42:06.980Z,53.52
2023-05-06T12:44:40.031Z,56.77
2023-05-06T12:47:08.936Z,53.08
2023-05-06T12:49:53.679Z,52.89
2023-05-06T12:52:25.181Z,53.69
2023-05-06T12:54:55.032Z,54.74
2023-05-06T12:57:22.161Z,52.38
2023-05-06T12:59:49.160Z,50.61
2023-05-06T13:02:16.115Z,52.92
2023-05-06T13:04:42.807Z,53.25
2023-05-06T13:07:09.259Z,52.89
2023-05-06T13:09:35.769Z,56.22
2023-05-06T13:12:04.449Z,52.71
2023-05-06T13:14:30.929Z,52.15
2023-05-06T13:17:00.788Z,54.82
2023-05-06T13:19:33.055Z,54.88
2023-05-06T13:22:00.621Z,53.34
2023-05-06T13:24:27.383Z,51.54
2023-05-06T13:26:53.860Z,50.96
2023-05-06T13:29:20.438Z,51.14
2023-05-06T13:31:46.938Z,52.46
2023-05-06T13:34:13.885Z,52.62
2023-05-06T13:36:40.338Z,54.51
2023-05-06T13:39:06.865Z,54.61
2023-05-06T13:41:33.238Z,52.80
2023-05-06T13:43:59.847Z,52.93
2023-05-06T13:46:29.245Z,54.68
2023-05-06T13:48:55.706Z,54.56
2023-05-06T13:51:22.160Z,54.81
2023-05-06T13:53:48.540Z,55.05
2023-05-06T13:56:14.955Z,54.21
2023-05-06T13:58:43.683Z,55.91
2023-05-06T14:01:10.279Z,54.75
2023-05-06T14:03:37.062Z,53.61
2023-05-06T14:06:03.735Z,53.14
2023-05-06T14:08:30.244Z,53.97
2023-05-06T14:10:56.599Z,53.78
2023-05-06T14:13:23.319Z,50.67
2023-05-06T14:15:49.851Z,50.19
2023-05-06T14:18:16.358Z,48.84
2023-05-06T14:20:44.116Z,48.66
2023-05-06T14:23:10.580Z,45.94
2023-05-06T14:25:37.096Z,45.64
2023-05-06T14:28:03.575Z,46.03
2023-05-06T14:30:31.251Z,49.02
2023-05-06T14:32:58.686Z,46.56
2023-05-06T14:35:25.337Z,48.40
2023-05-06T14:37:51.985Z,46.91
2023-05-06T14:40:18.418Z,46.29
2023-05-06T14:42:45.831Z,47.71
2023-05-06T14:45:13.454Z,46.14
2023-05-06T14:47:40.717Z,44.63
2023-05-06T14:50:11.944Z,44.23
2023-05-06T14:52:40.025Z,43.58
2023-05-06T14:55:08.817Z,45.56
2023-05-06T14:57:35.746Z,45.74
2023-05-06T15:00:04.909Z,46.20
2023-05-06T15:02:31.377Z,47.19
2023-05-06T15:04:58.185Z,47.14
2023-05-06T15:07:24.562Z,46.93
2023-05-06T15:09:53.369Z,48.10
2023-05-06T15:12:21.153Z,47.88
2023-05-06T15:14:47.680Z,46.09
2023-05-06T15:17:14.074Z,48.42
2023-05-06T15:19:40.714Z,49.47
2023-05-06T15:22:07.339Z,45.75
2023-05-06T15:24:33.757Z,46.67
2023-05-06T15:27:00.672Z,48.53
2023-05-06T15:29:27.324Z,48.25
2023-05-06T15:31:54.256Z,50.58
2023-05-06T15:34:21.169Z,48.89
2023-05-06T15:36:53.539Z,49.55
2023-05-06T15:39:20.044Z,50.98
2023-05-06T15:41:47.577Z,51.05
2023-05-06T15:44:16.388Z,50.71
2023-05-06T15:46:43.014Z,49.37
2023-05-06T15:49:39.634Z,50.80
2023-05-06T15:51:59.123Z,49.81
2023-05-06T15:54:27.261Z,49.84
2023-05-06T15:56:53.708Z,50.93
2023-05-06T15:59:20.152Z,50.29
2023-05-06T16:04:16.380Z,49.92
2023-05-06T16:06:42.982Z,49.71
2023-05-06T16:09:10.334Z,50.30
2023-05-06T16:11:36.884Z,50.11
2023-05-06T16:14:03.805Z,51.42
2023-05-06T16:16:30.513Z,48.88
2023-05-06T16:18:57.031Z,50.22
2023-05-06T16:21:23.493Z,51.21
2023-05-06T16:23:49.855Z,50.43
2023-05-06T16:26:16.854Z,50.68
2023-05-06T16:28:43.305Z,52.97
2023-05-06T16:31:09.793Z,52.30
2023-05-06T16:33:36.677Z,52.57
2023-05-06T16:36:03.974Z,52.83
2023-05-06T16:38:30.648Z,53.36
2023-05-06T16:40:57.037Z,54.32
2023-05-06T16:43:23.757Z,54.04
2023-05-06T16:45:50.352Z,53.33
2023-05-06T16:48:17.240Z,55.40
2023-05-06T16:50:43.766Z,55.56
2023-05-06T16:53:10.627Z,54.51
2023-05-06T16:55:37.142Z,54.39
2023-05-06T16:58:04.088Z,55.96
2023-05-06T17:00:31.747Z,55.62
2023-05-06T17:02:58.504Z,54.81
2023-05-06T17:05:25.155Z,54.64
2023-05-06T17:07:51.880Z,54.81
2023-05-06T17:10:19.019Z,55.26
2023-05-06T17:12:47.014Z,56.32
2023-05-06T17:15:13.459Z,57.29
2023-05-06T17:17:40.030Z,58.33
2023-05-06T17:20:07.376Z,58.15
2023-05-06T17:22:33.881Z,58.08
2023-05-06T17:25:00.444Z,58.32
2023-05-06T17:27:27.115Z,58.22
2023-05-06T17:29:53.533Z,58.89
2023-05-06T17:32:20.012Z,59.94
2023-05-06T17:34:46.573Z,59.47
2023-05-06T17:37:12.975Z,59.68
2023-05-06T17:39:39.811Z,59.65
2023-05-06T17:42:06.361Z,60.47
2023-05-06T17:44:35.169Z,60.99
2023-05-06T17:47:01.583Z,61.03
2023-05-06T17:49:28.047Z,61.64
2023-05-06T17:51:56.101Z,62.24
2023-05-06T17:54:23.002Z,63.33
2023-05-06T17:56:52.679Z,65.81
2023-05-06T17:59:19.843Z,67.61
2023-05-06T18:01:46.547Z,69.90
2023-05-06T18:04:13.592Z,71.92
2023-05-06T18:06:41.664Z,73.55
2023-05-06T18:09:08.520Z,74.58
2023-05-06T18:11:35.181Z,76.33
2023-05-06T18:14:01.634Z,77.69
2023-05-06T18:16:28.175Z,77.87
2023-05-06T18:18:54.630Z,80.43
2023-05-06T18:21:21.187Z,81.49
2023-05-06T18:23:48.520Z,82.33
2023-05-06T18:26:27.999Z,83.70
2023-05-06T18:29:06.771Z,84.56
2023-05-06T18:31:33.516Z,85.83
2023-05-06T18:33:59.936Z,86.78
2023-05-06T18:36:26.921Z,87.07
2023-05-06T18:38:53.443Z,87.74
2023-05-06T18:41:19.841Z,88.07
2023-05-06T18:43:46.253Z,88.86
2023-05-06T18:46:12.678Z,89.24
2023-05-06T18:48:39.146Z,90.31
2023-05-06T18:51:23.960Z,90.56
2023-05-06T18:53:50.428Z,90.84
2023-05-06T18:56:16.936Z,91.43
2023-05-06T18:58:43.582Z,91.92
2023-05-06T19:01:10.829Z,91.64
2023-05-06T19:03:37.989Z,91.99
2023-05-06T19:06:07.575Z,92.38
2023-05-06T19:08:34.003Z,91.80
2023-05-06T19:11:01.204Z,91.96
2023-05-06T19:13:28.201Z,91.94
2023-05-06T19:15:55.030Z,92.22
2023-05-06T19:18:21.524Z,92.52
2023-05-06T19:20:47.965Z,92.60
2023-05-06T19:23:14.384Z,92.85
2023-05-06T19:25:40.794Z,93.16
2023-05-06T19:28:07.630Z,93.08
2023-05-06T19:30:35.351Z,92.99
2023-05-06T19:33:02.515Z,93.44
2023-05-06T19:35:29.101Z,93.78
2023-05-06T19:37:56.123Z,95.08
2023-05-06T19:40:22.695Z,95.80
2023-05-06T19:42:49.114Z,95.65
2023-05-06T19:45:16.709Z,95.68
2023-05-06T19:47:45.314Z,95.52
2023-05-06T19:50:12.046Z,95.87
2023-05-06T19:52:38.666Z,95.99
2023-05-06T19:55:05.570Z,96.47
2023-05-06T19:57:33.627Z,96.91
2023-05-06T20:00:00.290Z,97.77
2023-05-06T20:02:26.861Z,97.63
2023-05-06T20:04:53.314Z,97.83
2023-05-06T20:07:21.102Z,97.85
2023-05-06T20:09:55.009Z,97.77
2023-05-06T20:12:26.396Z,97.93
2023-05-06T20:14:53.684Z,98.40
2023-05-06T20:17:20.617Z,98.80
2023-05-06T20:19:47.909Z,98.74
2023-05-06T20:22:14.821Z,98.48
2023-05-06T20:24:42.476Z,98.82
2023-05-06T20:27:09.505Z,98.96
2023-05-06T20:29:36.235Z,99.11
2023-05-06T20:32:02.925Z,99.79
2023-05-06T20:34:29.708Z,99.80
2023-05-06T20:36:56.773Z,100.00
2023-05-06T20:39:23.896Z,100.00
2023-05-06T20:41:50.501Z,100.00
2023-05-06T20:44:17.167Z,100.00
2023-05-06T20:46:44.141Z,100.00
2023-05-06T20:49:10.760Z,100.00
2023-05-06T20:51:37.227Z,100.00
2023-05-06T20:54:03.960Z,100.00
2023-05-06T20:56:30.550Z,100.00
2023-05-06T20:58:56.996Z,100.00
2023-05-06T21:01:24.142Z,100.00
2023-05-06T21:03:50.945Z,100.00
2023-05-06T21:06:18.581Z,100.00
2023-05-06T21:08:46.375Z,100.00
2023-05-06T21:11:13.255Z,100.00
2023-05-06T21:13:40.276Z,100.00
2023-05-06T21:16:06.644Z,100.00
2023-05-06T21:18:33.155Z,100.00
2023-05-06T21:20:59.775Z,100.00
2023-05-06T21:23:26.609Z,100.00
2023-05-06T21:25:53.034Z,100.00
2023-05-06T21:28:19.461Z,100.00
2023-05-06T21:30:46.050Z,100.00
2023-05-06T21:33:12.608Z,100.00
2023-05-06T21:35:39.108Z,100.00
2023-05-06T21:38:05.518Z,100.00
2023-05-06T21:40:32.230Z,100.00
2023-05-06T21:42:58.712Z,100.00
2023-05-06T21:45:25.359Z,100.00
2023-05-06T21:47:51.838Z,100.00
2023-05-06T21:50:18.255Z,100.00
2023-05-06T21:52:44.672Z,100.00
2023-05-06T21:55:11.515Z,100.00
2023-05-06T21:57:38.750Z,100.00
2023-05-06T22:00:11.974Z,100.00
2023-05-06T22:02:41.834Z,100.00
2023-05-06T22:05:09.031Z,100.00
2023-05-06T22:07:35.969Z,100.00
2023-05-06T22:10:03.096Z,100.00
2023-05-06T22:12:30.087Z,100.00
2023-05-06T22:14:56.552Z,100.00
2023-05-06T22:17:23.202Z,100.00
2023-05-06T22:19:50.480Z,100.00
2023-05-06T22:22:17.199Z,100.00
2023-05-06T22:24:43.884Z,100.00
2023-05-06T22:27:10.687Z,100.00
2023-05-06T22:29:37.130Z,100.00
2023-05-06T22:32:03.929Z,100.00
2023-05-06T22:34:30.420Z,100.00
2023-05-06T22:36:59.167Z,100.00
2023-05-06T22:39:27.186Z,100.00
2023-05-06T22:41:53.717Z,100.00
2023-05-06T22:44:21.004Z,100.00
2023-05-06T22:46:47.425Z,100.00
2023-05-06T22:49:14.444Z,100.00
2023-05-06T22:51:41.238Z,100.00
2023-05-06T22:54:07.620Z,100.00
2023-05-06T22:56:34.037Z,100.00
2023-05-06T22:59:00.481Z,100.00
2023-05-06T23:01:32.267Z,100.00
2023-05-06T23:03:59.629Z,100.00
2023-05-06T23:06:27.680Z,100.00
2023-05-06T23:08:54.199Z,100.00
2023-05-06T23:11:20.779Z,100.00
2023-05-06T23:13:47.325Z,100.00
2023-05-06T23:16:14.617Z,100.00
2023-05-06T23:18:41.374Z,100.00
2023-05-06T23:21:08.011Z,100.00
2023-05-06T23:23:34.629Z,100.00
2023-05-06T23:26:01.026Z,100.00
2023-05-06T23:28:27.842Z,100.00
2023-05-06T23:30:54.320Z,100.00
2023-05-06T23:33:21.182Z,100.00
2023-05-06T23:35:47.610Z,100.00
2023-05-06T23:38:15.768Z,100.00
2023-05-06T23:40:42.388Z,100.00
2023-05-06T23:43:11.220Z,100.00
2023-05-06T23:45:37.974Z,100.00
2023-05-06T23:48:04.988Z,100.00
2023-05-06T23:50:32.826Z,100.00
2023-05-06T23:52:59.356Z,100.00
2023-05-06T23:55:26.401Z,100.00
2023-05-06T23:57:53.040Z,100.00
